Time;durP1;ratioP1;P1;durP2;ratioP2;P2;SDS_P1;SDS_P2;PMS_P1;PMS_P2;Temp;Humidity;BMP_temperature;BMP_pressure;BME280_temperature;BME280_humidity;BME280_pressure;Samples;Min_cycle;Max_cycle;Signal;HPM_P1;HPM_P2
2022/02/11 00:09:09;;;;;;;18.60;13.45;;;10.00;99.90;;;;;;4954836;28;20043;-82
2022/02/11 00:11:41;;;;;;;25.08;19.67;;;10.20;99.90;;;;;;4956054;28;20023;-82
2022/02/11 00:14:09;;;;;;;21.95;14.63;;;10.20;99.90;;;;;;4954347;28;20090;-82
2022/02/11 00:16:38;;;;;;;20.90;14.15;;;10.20;99.90;;;;;;4954924;28;20078;-82
2022/02/11 00:19:04;;;;;;;20.52;14.38;;;10.00;99.90;;;;;;4954725;28;20051;-82
2022/02/11 00:21:30;;;;;;;18.95;13.95;;;10.30;99.90;;;;;;4954574;28;20039;-82
2022/02/11 00:23:57;;;;;;;24.73;14.68;;;10.10;99.90;;;;;;4955228;28;20031;-82
2022/02/11 00:26:28;;;;;;;19.48;13.52;;;10.50;99.90;;;;;;4955011;28;20042;-82
2022/02/11 00:34:32;;;;;;;20.05;13.13;;;10.50;99.90;;;;;;4954723;28;20026;-82
2022/02/11 00:37:09;;;;;;;16.92;13.05;;;10.20;99.90;;;;;;4954307;28;20035;-82
2022/02/11 00:40:03;;;;;;;17.83;12.35;;;10.30;99.90;;;;;;4955077;28;20027;-82
2022/02/11 01:06:15;;;;;;;14.05;10.38;;;9.80;99.90;;;;;;4954413;28;20130;-82
2022/02/11 01:08:41;;;;;;;15.82;10.73;;;10.10;99.90;;;;;;4954236;28;20059;-81
2022/02/11 01:11:14;;;;;;;15.35;9.73;;;10.50;99.90;;;;;;4954066;28;20028;-82
2022/02/11 01:13:40;;;;;;;16.80;9.93;;;10.10;99.90;;;;;;4951526;29;20156;-82
2022/02/11 01:16:11;;;;;;;18.27;9.82;;;10.10;99.90;;;;;;4939136;29;20031;-82
2022/02/11 01:18:38;;;;;;;14.68;9.20;;;10.00;99.90;;;;;;4954107;28;20050;-82
2022/02/11 01:21:09;;;;;;;17.55;10.15;;;10.20;99.90;;;;;;4953747;28;20456;-82
2022/02/11 01:26:19;;;;;;;16.90;10.23;;;10.10;99.90;;;;;;4953235;28;20058;-82
2022/02/11 01:31:38;;;;;;;18.27;11.57;;;10.10;99.90;;;;;;4953920;28;20449;-82
2022/02/11 01:37:05;;;;;;;15.32;9.85;;;10.20;99.90;;;;;;4953837;28;20063;-83
2022/02/11 01:53:22;;;;;;;15.63;9.70;;;10.40;99.90;;;;;;4952771;29;20026;-84
2022/02/11 01:56:09;;;;;;;14.55;9.00;;;10.30;99.90;;;;;;4954961;28;20090;-83
2022/02/11 02:06:36;;;;;;;20.13;11.93;;;10.40;99.90;;;;;;4953708;28;20038;-84
2022/02/11 02:50:09;;;;;;;17.17;11.25;;;10.30;99.90;;;;;;4901623;29;20069;-84
2022/02/11 02:57:22;;;;;;;20.85;13.80;;;9.40;99.90;;;;;;4901702;29;20588;-84
2022/02/11 03:51:58;;;;;;;21.73;15.20;;;9.80;99.90;;;;;;4916957;29;20039;-84
2022/02/11 04:56:54;;;;;;;25.70;17.27;;;10.10;99.90;;;;;;4954802;28;20495;-82
2022/02/11 04:59:37;;;;;;;21.08;14.98;;;10.10;99.90;;;;;;4954464;28;20042;-82
2022/02/11 05:02:05;;;;;;;18.13;14.13;;;10.10;99.90;;;;;;4936673;28;20370;-82
2022/02/11 05:04:31;;;;;;;20.83;14.15;;;10.20;99.90;;;;;;4954506;28;20015;-83
2022/02/11 05:06:59;;;;;;;25.40;15.70;;;10.40;99.90;;;;;;4954148;28;20077;-82
2022/02/11 05:09:24;;;;;;;25.08;16.38;;;10.20;99.90;;;;;;4954172;28;20036;-82
2022/02/11 05:11:50;;;;;;;25.15;17.08;;;10.20;99.90;;;;;;4954312;28;21188;-82
2022/02/11 05:14:16;;;;;;;22.83;15.88;;;10.20;99.90;;;;;;4954291;28;20024;-82
2022/02/11 05:16:43;;;;;;;22.63;16.38;;;10.50;99.90;;;;;;4953751;29;20027;-84
2022/02/11 05:19:09;;;;;;;23.73;17.48;;;10.00;99.90;;;;;;4953778;28;20055;-84
2022/02/11 05:21:35;;;;;;;20.23;15.93;;;10.00;99.90;;;;;;4954425;28;20134;-84
2022/02/11 05:24:01;;;;;;;24.27;15.43;;;9.90;99.90;;;;;;4954133;28;20034;-84
2022/02/11 05:26:26;;;;;;;19.95;16.23;;;9.90;99.90;;;;;;4954233;28;20034;-82
2022/02/11 05:28:52;;;;;;;19.35;15.90;;;10.00;99.90;;;;;;4953508;29;20118;-82
2022/02/11 05:31:18;;;;;;;21.55;14.95;;;10.10;99.90;;;;;;4954100;28;20419;-83
2022/02/11 05:33:43;;;;;;;21.48;14.73;;;10.10;99.90;;;;;;4953939;28;20031;-83
2022/02/11 05:36:09;;;;;;;21.98;15.05;;;10.60;99.90;;;;;;4953990;28;20045;-82
2022/02/11 05:38:35;;;;;;;19.10;13.98;;;10.10;99.90;;;;;;4954498;28;20035;-83
2022/02/11 05:41:00;;;;;;;17.02;13.05;;;10.10;99.90;;;;;;4952569;29;20055;-83
2022/02/11 05:43:26;;;;;;;17.95;12.95;;;10.00;99.90;;;;;;4955789;28;20551;-82
2022/02/11 05:45:51;;;;;;;16.77;12.18;;;10.00;99.90;;;;;;4953968;28;20027;-83
2022/02/11 05:48:17;;;;;;;15.15;11.98;;;9.80;99.90;;;;;;4953641;28;20496;-82
2022/02/11 05:50:43;;;;;;;15.55;11.02;;;9.80;99.90;;;;;;4954224;28;20117;-83
2022/02/11 05:53:10;;;;;;;11.77;8.93;;;9.90;99.90;;;;;;4953206;28;20034;-83
2022/02/11 05:55:36;;;;;;;9.07;8.05;;;9.20;99.90;;;;;;4953158;28;20036;-83
2022/02/11 05:58:02;;;;;;;9.40;7.60;;;9.40;99.90;;;;;;4954225;28;20504;-83
2022/02/11 06:00:28;;;;;;;11.27;7.90;;;9.10;99.90;;;;;;4953899;28;20023;-83
2022/02/11 06:02:54;;;;;;;8.90;7.20;;;9.10;99.90;;;;;;4954503;28;20046;-83
2022/02/11 06:05:19;;;;;;;9.40;7.50;;;9.70;99.90;;;;;;4957314;28;20043;-83
2022/02/11 06:07:45;;;;;;;9.38;7.60;;;9.00;99.90;;;;;;4956570;29;20039;-82
2022/02/11 06:10:12;;;;;;;9.65;7.25;;;9.20;99.90;;;;;;4956891;28;20407;-83
2022/02/11 06:12:37;;;;;;;9.10;7.22;;;9.30;99.90;;;;;;4957194;28;20086;-83
2022/02/11 06:15:04;;;;;;;10.00;7.45;;;9.40;99.90;;;;;;4957233;28;20118;-83
2022/02/11 06:17:29;;;;;;;8.95;7.22;;;9.10;99.90;;;;;;4957318;28;20113;-82
2022/02/11 06:19:57;;;;;;;9.68;7.63;;;9.30;99.90;;;;;;4956879;28;20171;-83
2022/02/11 06:22:23;;;;;;;10.68;7.95;;;9.00;99.90;;;;;;4957329;28;20575;-83
2022/02/11 06:24:48;;;;;;;8.93;6.78;;;9.10;99.90;;;;;;4956829;28;20786;-83
2022/02/11 06:27:16;;;;;;;8.07;6.70;;;8.80;99.90;;;;;;4957652;28;20032;-83
2022/02/11 06:29:41;;;;;;;9.77;6.63;;;9.30;99.90;;;;;;4957129;28;20078;-83
2022/02/11 06:32:07;;;;;;;9.30;7.13;;;8.90;99.90;;;;;;4956113;28;20019;-83
2022/02/11 06:34:33;;;;;;;7.78;6.30;;;8.90;99.90;;;;;;4956784;28;20410;-83
2022/02/11 06:36:59;;;;;;;7.88;6.28;;;9.10;99.90;;;;;;4956874;28;20126;-83
2022/02/11 06:39:25;;;;;;;7.85;6.22;;;9.20;99.90;;;;;;4956850;28;20035;-82
2022/02/11 06:41:54;;;;;;;9.35;7.22;;;9.00;99.90;;;;;;4956761;28;20031;-83
2022/02/11 06:44:20;;;;;;;8.82;7.00;;;8.80;99.90;;;;;;4957108;28;20483;-83
2022/02/11 06:46:46;;;;;;;8.23;6.35;;;8.70;99.90;;;;;;4956128;29;20158;-83
2022/02/11 06:49:11;;;;;;;8.30;5.90;;;8.50;99.90;;;;;;4956316;28;20106;-83
2022/02/11 06:51:37;;;;;;;8.60;6.07;;;9.00;99.90;;;;;;4956608;28;20027;-83
2022/02/11 06:54:03;;;;;;;9.07;6.80;;;9.10;99.90;;;;;;4956462;28;20070;-83
2022/02/11 06:56:28;;;;;;;8.05;5.88;;;8.80;99.90;;;;;;4942178;28;20026;-83
2022/02/11 06:58:55;;;;;;;7.55;6.07;;;9.20;99.90;;;;;;4955781;29;20411;-83
2022/02/11 07:01:21;;;;;;;6.38;5.45;;;9.30;99.90;;;;;;4956322;28;20028;-82
2022/02/11 07:03:47;;;;;;;7.25;5.57;;;8.80;99.90;;;;;;4956713;28;20496;-83
2022/02/11 07:06:12;;;;;;;9.23;6.00;;;9.00;99.90;;;;;;4956219;28;20030;-83
2022/02/11 07:08:38;;;;;;;8.55;6.93;;;8.60;99.90;;;;;;4955854;28;20039;-82
2022/02/11 07:11:04;;;;;;;6.97;5.88;;;8.70;99.90;;;;;;4955100;28;20031;-82
2022/02/11 07:13:29;;;;;;;7.00;5.50;;;8.70;99.90;;;;;;4956995;28;20038;-83
2022/02/11 07:15:55;;;;;;;5.93;4.88;;;8.60;99.90;;;;;;4956083;28;20121;-82
2022/02/11 07:18:20;;;;;;;6.53;5.22;;;8.50;99.90;;;;;;4955888;28;20028;-82
2022/02/11 07:20:46;;;;;;;6.40;5.10;;;8.90;99.90;;;;;;4940107;29;20054;-83
2022/02/11 07:23:13;;;;;;;5.57;4.68;;;8.50;99.90;;;;;;4955756;28;20102;-83
2022/02/11 07:25:39;;;;;;;7.00;5.47;;;8.50;99.90;;;;;;4955399;28;20031;-83
2022/02/11 07:28:05;;;;;;;6.25;4.20;;;8.60;99.90;;;;;;4941462;29;20035;-83
2022/02/11 07:30:31;;;;;;;5.65;5.07;;;8.40;99.90;;;;;;4956054;28;20038;-83
2022/02/11 07:32:57;;;;;;;5.07;4.57;;;8.50;99.90;;;;;;4955894;28;20064;-83
2022/02/11 07:35:24;;;;;;;5.07;4.57;;;8.40;99.90;;;;;;4955961;28;20043;-83
2022/02/11 07:37:50;;;;;;;6.00;4.05;;;8.40;99.90;;;;;;4964980;28;20567;-82
2022/02/11 07:40:16;;;;;;;5.80;4.95;;;8.70;99.90;;;;;;4961596;28;20035;-82
2022/02/11 07:42:44;;;;;;;7.65;5.88;;;8.10;99.90;;;;;;4961499;28;20521;-82
2022/02/11 07:45:11;;;;;;;10.55;9.45;;;8.30;99.90;;;;;;4956194;28;20499;-83
2022/02/11 07:47:37;;;;;;;11.07;9.90;;;8.20;99.90;;;;;;4958110;28;20027;-81
2022/02/11 07:50:05;;;;;;;14.73;13.23;;;8.10;99.90;;;;;;4937548;28;20412;-83
2022/02/11 07:52:30;;;;;;;13.13;11.43;;;7.90;99.90;;;;;;4954790;28;20023;-83
2022/02/11 07:54:56;;;;;;;13.60;12.27;;;8.10;99.90;;;;;;4955614;28;20047;-83
2022/02/11 07:57:23;;;;;;;10.40;9.40;;;8.30;99.90;;;;;;4956374;28;20031;-83
2022/02/11 07:59:49;;;;;;;16.42;14.70;;;8.10;99.90;;;;;;4956151;28;20039;-82
2022/02/11 08:02:16;;;;;;;9.50;8.60;;;8.00;99.90;;;;;;4955471;28;20035;-88
2022/02/11 08:04:41;;;;;;;7.10;6.05;;;8.00;99.90;;;;;;4953670;29;20061;-83
2022/02/11 08:07:07;;;;;;;9.70;8.75;;;8.00;99.90;;;;;;4954713;28;20071;-82
2022/02/11 08:09:33;;;;;;;6.78;6.20;;;7.90;99.90;;;;;;4955490;28;20544;-82
2022/02/11 08:11:58;;;;;;;28.02;25.38;;;8.00;99.90;;;;;;4956146;28;20058;-82
2022/02/11 08:14:25;;;;;;;20.30;18.40;;;8.40;99.90;;;;;;4955160;28;20415;-82
2022/02/11 08:16:51;;;;;;;11.50;10.23;;;8.50;99.90;;;;;;4954777;28;20038;-83
2022/02/11 08:19:19;;;;;;;9.48;8.57;;;8.30;99.90;;;;;;4951522;28;20050;-82
2022/02/11 08:21:46;;;;;;;5.95;5.13;;;8.00;99.90;;;;;;4954445;28;20027;-83
2022/02/11 08:24:11;;;;;;;5.65;5.10;;;7.90;99.90;;;;;;4955169;28;20031;-82
2022/02/11 08:26:37;;;;;;;5.63;5.07;;;7.80;99.90;;;;;;4954816;28;20078;-82
2022/02/11 08:29:04;;;;;;;6.13;5.45;;;7.70;99.90;;;;;;4954041;28;20500;-82
2022/02/11 08:31:32;;;;;;;5.78;4.57;;;7.90;99.90;;;;;;4954411;28;20026;-82
2022/02/11 08:33:57;;;;;;;4.75;3.97;;;7.70;99.90;;;;;;4954669;28;20031;-82
2022/02/11 08:36:23;;;;;;;4.43;4.03;;;8.00;99.90;;;;;;4955124;28;20500;-82
2022/02/11 08:38:49;;;;;;;3.22;2.70;;;7.80;99.90;;;;;;4954904;28;20059;-82
2022/02/11 08:41:14;;;;;;;3.85;3.40;;;7.90;99.90;;;;;;4954722;28;20024;-82
2022/02/11 08:43:40;;;;;;;3.78;2.63;;;8.50;99.90;;;;;;4953611;28;20576;-83
2022/02/11 08:46:06;;;;;;;4.72;4.00;;;8.60;99.90;;;;;;4954588;28;20496;-83
2022/02/11 08:48:31;;;;;;;2.63;2.38;;;8.50;99.90;;;;;;4954507;28;20082;-82
2022/02/11 08:50:57;;;;;;;2.50;2.13;;;9.00;99.90;;;;;;4954330;28;20114;-82
2022/02/11 08:53:23;;;;;;;2.92;2.53;;;8.20;99.90;;;;;;4954326;28;20035;-83
2022/02/11 08:55:50;;;;;;;5.70;4.13;;;8.80;99.90;;;;;;4954224;29;20032;-84
2022/02/11 08:58:19;;;;;;;2.85;2.40;;;8.30;99.90;;;;;;4955061;28;20090;-82
2022/02/11 09:00:48;;;;;;;3.22;2.33;;;9.00;99.90;;;;;;4939861;29;20396;-82
2022/02/11 09:03:15;;;;;;;3.90;2.20;;;8.40;99.90;;;;;;4954358;28;20050;-82
2022/02/11 09:05:40;;;;;;;2.00;1.80;;;8.80;99.90;;;;;;4954647;28;20034;-82
2022/02/11 09:08:06;;;;;;;2.00;1.60;;;8.40;99.90;;;;;;4953316;28;20042;-82
2022/02/11 09:10:32;;;;;;;1.63;1.50;;;8.20;99.90;;;;;;4954468;28;20031;-82
2022/02/11 09:12:59;;;;;;;3.75;2.35;;;8.20;99.90;;;;;;4954406;28;20031;-83
2022/02/11 09:15:26;;;;;;;3.20;2.53;;;8.30;99.90;;;;;;4954201;28;20022;-82
2022/02/11 09:17:53;;;;;;;3.35;2.83;;;8.30;99.90;;;;;;4954184;28;20079;-82
2022/02/11 09:20:19;;;;;;;4.10;2.45;;;8.50;99.90;;;;;;4953474;28;20059;-85
2022/02/11 09:22:45;;;;;;;2.22;2.03;;;8.90;99.90;;;;;;4948627;28;20118;-85
2022/02/11 09:25:11;;;;;;;2.35;1.90;;;8.40;99.90;;;;;;4948836;28;20119;-86
2022/02/11 09:27:43;;;;;;;2.33;1.88;;;8.60;99.90;;;;;;4953823;28;20042;-86
2022/02/11 09:30:15;;;;;;;2.40;2.08;;;9.10;99.90;;;;;;4953475;28;20065;-85
2022/02/11 09:32:44;;;;;;;2.70;2.28;;;8.30;99.90;;;;;;4954110;28;20042;-87
2022/02/11 09:35:11;;;;;;;2.47;2.25;;;8.40;99.90;;;;;;4953189;28;20533;-87
2022/02/11 09:37:38;;;;;;;2.53;2.33;;;8.70;99.90;;;;;;4953409;28;20491;-86
2022/02/11 09:40:09;;;;;;;3.30;2.35;;;8.60;99.90;;;;;;4957960;28;20043;-87
2022/02/11 09:42:36;;;;;;;2.60;1.92;;;8.50;99.90;;;;;;4943955;29;20034;-87
2022/02/11 09:45:03;;;;;;;2.83;2.30;;;8.30;99.90;;;;;;4957407;28;20519;-86
2022/02/11 09:47:29;;;;;;;2.40;2.00;;;8.10;99.90;;;;;;4942467;28;20122;-85
2022/02/11 09:49:55;;;;;;;2.50;2.30;;;8.40;99.90;;;;;;4956910;29;20131;-85
2022/02/11 09:52:21;;;;;;;2.92;2.60;;;8.40;99.90;;;;;;4957358;28;20318;-86
2022/02/11 09:54:47;;;;;;;3.58;2.60;;;8.40;99.90;;;;;;4957427;28;20106;-86
2022/02/11 09:57:15;;;;;;;5.07;2.90;;;8.30;99.90;;;;;;4957393;28;20127;-86
2022/02/11 09:59:41;;;;;;;3.50;2.63;;;8.50;99.90;;;;;;4940715;29;20433;-85
2022/02/11 10:02:08;;;;;;;2.85;2.55;;;8.20;99.90;;;;;;4956056;28;20027;-86
2022/02/11 10:04:34;;;;;;;2.60;2.40;;;8.20;99.90;;;;;;4957540;28;20592;-87
2022/02/11 10:07:00;;;;;;;2.33;2.10;;;8.10;99.90;;;;;;4959925;28;20114;-87
2022/02/11 10:09:27;;;;;;;2.30;2.10;;;9.00;99.90;;;;;;4957245;28;20047;-87
2022/02/11 10:11:53;;;;;;;2.60;2.28;;;9.00;99.90;;;;;;4941915;29;20086;-86
2022/02/11 10:14:35;;;;;;;2.67;2.20;;;9.60;99.90;;;;;;4956892;28;20123;-86
2022/02/11 10:17:08;;;;;;;3.25;2.15;;;8.80;99.90;;;;;;4952650;29;20512;-87
2022/02/11 10:19:49;;;;;;;2.88;2.30;;;8.70;99.90;;;;;;4957690;28;20050;-87
2022/02/11 10:22:27;;;;;;;3.92;2.70;;;8.70;99.90;;;;;;4956697;28;20054;-87
2022/02/11 10:24:56;;;;;;;3.75;2.45;;;9.10;99.90;;;;;;4957623;28;20477;-89
2022/02/11 10:27:26;;;;;;;2.97;2.17;;;8.90;99.90;;;;;;4962822;28;20482;-89
2022/02/11 10:29:56;;;;;;;2.30;2.10;;;8.70;99.90;;;;;;4956859;28;20085;-87
2022/02/11 10:32:39;;;;;;;4.50;2.47;;;8.90;99.90;;;;;;4956594;28;20039;-86
2022/02/11 10:35:06;;;;;;;2.60;2.30;;;9.00;99.90;;;;;;4935376;28;20023;-88
2022/02/11 10:37:32;;;;;;;2.88;2.10;;;8.80;99.90;;;;;;4956968;28;20090;-88
2022/02/11 10:40:00;;;;;;;3.85;2.92;;;8.80;99.90;;;;;;4942537;29;20036;-88
2022/02/11 10:42:43;;;;;;;3.30;2.65;;;8.40;99.90;;;;;;4957197;28;20031;-88
2022/02/11 10:45:27;;;;;;;7.65;6.95;;;8.90;99.90;;;;;;4956707;28;20035;-88
2022/02/11 10:48:10;;;;;;;5.45;4.85;;;8.50;99.90;;;;;;4941882;29;20077;-87
2022/02/11 10:50:36;;;;;;;4.70;4.20;;;8.80;99.90;;;;;;4926678;28;20475;-87
2022/02/11 10:53:02;;;;;;;5.43;3.50;;;9.00;99.90;;;;;;4955903;29;20023;-87
2022/02/11 10:55:28;;;;;;;4.18;2.60;;;9.30;99.90;;;;;;4957641;28;20028;-86
2022/02/11 10:57:59;;;;;;;2.90;2.10;;;9.10;99.90;;;;;;4956604;28;20031;-88
2022/02/11 11:00:25;;;;;;;2.35;1.90;;;9.90;99.90;;;;;;4941028;29;20183;-86
2022/02/11 11:02:51;;;;;;;2.55;1.92;;;9.50;99.90;;;;;;4940737;29;20082;-87
2022/02/11 11:05:17;;;;;;;2.30;2.10;;;9.60;99.90;;;;;;4955946;28;20027;-87
2022/02/11 11:07:43;;;;;;;3.83;2.35;;;9.80;99.90;;;;;;4954803;29;20138;-87
2022/02/11 11:10:11;;;;;;;5.18;4.25;;;9.50;99.90;;;;;;4955677;28;20137;-87
2022/02/11 11:12:42;;;;;;;3.50;2.55;;;9.50;99.90;;;;;;4955760;28;20024;-86
2022/02/11 11:15:09;;;;;;;3.65;2.67;;;10.40;99.90;;;;;;4954690;28;20078;-87
2022/02/11 11:17:40;;;;;;;2.83;2.47;;;9.70;99.90;;;;;;4956146;28;20021;-87
2022/02/11 11:20:07;;;;;;;2.55;2.35;;;10.10;99.90;;;;;;4954279;28;20091;-86
2022/02/11 11:22:40;;;;;;;5.10;2.25;;;9.60;99.90;;;;;;4955158;28;20488;-87
2022/02/11 11:25:08;;;;;;;2.50;2.10;;;9.40;99.90;;;;;;4955341;28;20141;-84
2022/02/11 11:27:44;;;;;;;3.65;2.58;;;9.50;99.90;;;;;;4939925;29;20023;-84
2022/02/11 11:30:29;;;;;;;4.07;2.80;;;10.00;99.90;;;;;;4954937;28;20031;-84
2022/02/11 11:33:07;;;;;;;5.60;2.60;;;9.70;99.90;;;;;;4955358;28;20032;-84
2022/02/11 11:35:43;;;;;;;4.85;2.30;;;9.40;99.90;;;;;;4940092;28;20023;-85
2022/02/11 11:38:10;;;;;;;3.42;2.65;;;9.80;99.90;;;;;;4953966;28;20455;-86
2022/02/11 11:40:36;;;;;;;3.55;2.47;;;9.80;99.90;;;;;;4954842;28;20118;-85
2022/02/11 11:43:13;;;;;;;2.35;1.83;;;10.30;99.90;;;;;;4955187;28;20102;-85
2022/02/11 11:45:42;;;;;;;5.10;2.20;;;11.10;99.90;;;;;;4954796;28;20051;-84
2022/02/11 11:48:15;;;;;;;3.75;2.20;;;10.50;99.90;;;;;;4954385;28;20555;-85
2022/02/11 11:50:42;;;;;;;2.60;1.77;;;12.20;99.90;;;;;;4954770;28;20054;-84
2022/02/11 11:53:26;;;;;;;3.67;2.20;;;16.70;99.90;;;;;;4954190;28;20030;-86
2022/02/11 11:55:51;;;;;;;2.75;2.13;;;13.50;99.90;;;;;;4954202;29;20089;-86
2022/02/11 11:58:49;;;;;;;2.40;1.90;;;12.20;99.90;;;;;;4954332;28;20019;-85
2022/02/11 12:01:19;;;;;;;2.08;1.80;;;11.00;99.90;;;;;;4897209;29;20050;-86
2022/02/11 12:04:16;;;;;;;2.17;1.98;;;11.50;99.90;;;;;;4897854;29;20032;-86
2022/02/11 12:06:42;;;;;;;3.75;3.22;;;11.00;99.90;;;;;;4898076;29;20024;-86
2022/02/11 12:09:07;;;;;;;3.25;1.70;;;10.80;99.90;;;;;;4897962;29;20053;-86
2022/02/11 12:11:35;;;;;;;3.95;3.00;;;12.50;99.90;;;;;;4897679;29;20032;-86
2022/02/11 12:14:01;;;;;;;4.40;2.08;;;11.80;99.90;;;;;;4894824;29;20032;-83
2022/02/11 12:16:27;;;;;;;4.55;3.45;;;11.60;99.90;;;;;;4898993;29;20191;-84
2022/02/11 12:18:53;;;;;;;4.45;2.33;;;11.60;99.90;;;;;;4898343;29;20062;-84
2022/02/11 12:21:19;;;;;;;2.92;1.92;;;11.50;99.90;;;;;;4898556;29;20155;-83
2022/02/11 12:29:14;;;;;;;3.05;1.80;;;11.50;99.90;;;;;;4894005;29;20043;-83
2022/02/11 12:31:41;;;;;;;8.20;5.47;;;11.20;99.90;;;;;;4897509;29;20036;-82
2022/02/11 12:34:13;;;;;;;4.28;2.30;;;10.80;99.90;;;;;;4898214;29;20249;-84
2022/02/11 12:36:39;;;;;;;4.68;2.25;;;10.70;99.90;;;;;;4922264;29;20043;-82
2022/02/11 12:39:05;;;;;;;3.75;2.40;;;11.00;99.90;;;;;;4954997;28;20106;-82
2022/02/11 12:41:45;;;;;;;2.42;1.80;;;11.10;99.90;;;;;;4954532;28;20114;-82
2022/02/11 12:44:31;;;;;;;3.10;1.80;;;11.30;99.90;;;;;;4951881;28;20459;-82
2022/02/11 12:47:04;;;;;;;3.33;2.10;;;11.60;99.90;;;;;;4953854;29;20028;-82
2022/02/11 12:49:31;;;;;;;2.72;1.92;;;10.80;99.90;;;;;;4954060;28;20043;-82
2022/02/11 12:51:57;;;;;;;2.28;1.70;;;10.50;99.90;;;;;;4954347;28;20055;-82
2022/02/11 12:54:24;;;;;;;4.00;2.22;;;10.40;99.90;;;;;;4954510;28;20031;-82
2022/02/11 12:57:05;;;;;;;3.05;1.92;;;10.30;99.90;;;;;;4939188;29;20055;-82
2022/02/11 12:59:31;;;;;;;3.38;2.00;;;10.20;99.90;;;;;;4939289;28;20447;-82
2022/02/11 13:01:57;;;;;;;2.20;2.00;;;9.90;99.90;;;;;;4953887;29;20490;-82
2022/02/11 13:04:22;;;;;;;4.50;1.77;;;10.10;99.90;;;;;;4954327;28;20118;-82
2022/02/11 13:06:48;;;;;;;2.75;1.88;;;10.40;99.90;;;;;;4940192;29;20039;-82
2022/02/11 13:09:18;;;;;;;1.88;1.60;;;10.60;99.90;;;;;;4953941;28;20039;-82
2022/02/11 13:11:45;;;;;;;3.38;2.22;;;10.30;99.90;;;;;;4954275;28;20019;-82
2022/02/11 13:14:11;;;;;;;2.83;1.85;;;10.50;99.90;;;;;;4953728;28;20094;-82
2022/02/11 13:16:38;;;;;;;5.03;2.45;;;10.60;99.90;;;;;;4954916;28;20019;-82
2022/02/11 13:19:12;;;;;;;2.60;2.00;;;10.70;99.90;;;;;;4953940;28;20492;-82
2022/02/11 13:21:38;;;;;;;2.95;2.08;;;10.50;99.90;;;;;;4954373;28;20109;-82
2022/02/11 13:24:05;;;;;;;3.13;2.15;;;10.80;99.90;;;;;;4954462;28;20063;-82
2022/02/11 13:26:32;;;;;;;3.53;1.95;;;11.00;99.90;;;;;;4939207;28;20023;-82
2022/02/11 13:28:58;;;;;;;3.33;2.28;;;10.70;99.90;;;;;;4953662;29;20415;-82
2022/02/11 13:31:24;;;;;;;2.65;1.80;;;10.60;99.90;;;;;;4953987;28;20035;-81
2022/02/11 13:34:08;;;;;;;2.95;1.90;;;10.70;99.90;;;;;;4954083;28;20031;-82
2022/02/11 13:36:34;;;;;;;2.67;1.83;;;10.70;99.90;;;;;;4954103;28;20028;-82
2022/02/11 13:39:01;;;;;;;3.50;1.77;;;10.70;99.90;;;;;;4953741;28;20404;-82
2022/02/11 13:41:29;;;;;;;3.08;1.83;;;10.60;99.90;;;;;;4954058;28;20031;-82
2022/02/11 13:44:06;;;;;;;3.80;2.13;;;11.00;99.90;;;;;;4953237;28;20023;-82
2022/02/11 13:46:41;;;;;;;2.03;1.75;;;11.30;99.90;;;;;;4954256;28;20158;-82
2022/02/11 13:49:09;;;;;;;3.65;1.90;;;12.20;99.90;;;;;;4953556;28;20090;-82
2022/02/11 13:51:35;;;;;;;2.58;1.92;;;11.40;99.90;;;;;;4954259;28;20122;-82
2022/02/11 13:54:16;;;;;;;3.33;1.88;;;11.80;99.90;;;;;;4953535;28;20031;-82
2022/02/11 13:56:49;;;;;;;4.15;1.95;;;11.70;99.90;;;;;;4940688;28;20023;-82
2022/02/11 13:59:25;;;;;;;2.67;1.60;;;14.40;99.90;;;;;;4954657;28;20020;-82
2022/02/11 14:01:52;;;;;;;2.92;1.83;;;16.10;99.90;;;;;;4952181;29;20036;-82
2022/02/11 14:04:20;;;;;;;2.40;1.58;;;14.30;99.90;;;;;;4953864;28;20038;-83
2022/02/11 14:06:52;;;;;;;2.65;1.80;;;14.00;99.90;;;;;;4954035;28;20032;-82
2022/02/11 14:09:31;;;;;;;3.53;2.45;;;12.80;99.90;;;;;;4954043;28;20532;-81
2022/02/11 14:11:58;;;;;;;4.25;3.05;;;12.10;99.90;;;;;;4953903;28;20070;-81
2022/02/11 14:14:24;;;;;;;2.25;1.75;;;12.10;99.90;;;;;;4954130;28;20059;-82
2022/02/11 14:16:56;;;;;;;2.67;1.70;;;11.70;99.90;;;;;;4952971;29;20042;-82
2022/02/11 14:19:26;;;;;;;2.83;1.80;;;11.90;99.90;;;;;;4938735;29;20036;-82
2022/02/11 14:21:57;;;;;;;4.72;1.73;;;12.30;99.90;;;;;;4953466;28;20034;-82
2022/02/11 14:24:24;;;;;;;3.22;1.73;;;12.00;99.90;;;;;;4954613;28;20031;-82
2022/02/11 14:26:51;;;;;;;1.98;1.70;;;12.10;99.90;;;;;;4957295;28;20557;-82
2022/02/11 14:29:17;;;;;;;1.73;1.50;;;12.00;99.90;;;;;;4956853;28;20126;-82
2022/02/11 14:31:45;;;;;;;2.35;1.33;;;14.30;99.90;;;;;;4956564;29;20023;-82
2022/02/11 14:34:12;;;;;;;3.08;2.00;;;14.50;99.90;;;;;;4956760;28;20051;-81
2022/02/11 14:36:39;;;;;;;4.82;2.03;;;12.90;99.90;;;;;;4957037;28;20387;-82
2022/02/11 14:39:09;;;;;;;4.43;2.00;;;12.40;99.90;;;;;;4956894;28;20038;-82
2022/02/11 14:41:46;;;;;;;5.25;2.72;;;11.90;99.90;;;;;;4956996;28;20109;-82
2022/02/11 14:44:19;;;;;;;3.53;2.20;;;11.60;99.90;;;;;;4956877;28;20063;-82
2022/02/11 14:46:46;;;;;;;2.35;2.03;;;11.40;99.90;;;;;;4954863;29;20038;-82
2022/02/11 14:49:13;;;;;;;3.17;1.92;;;11.80;99.90;;;;;;4956925;28;20049;-82
2022/02/11 14:51:39;;;;;;;4.15;1.80;;;13.40;99.90;;;;;;4956265;28;20065;-82
2022/02/11 14:54:08;;;;;;;2.58;1.98;;;14.30;99.90;;;;;;4956947;28;20039;-81
2022/02/11 14:56:38;;;;;;;2.85;1.88;;;15.00;99.90;;;;;;4956582;28;20027;-82
2022/02/11 14:59:06;;;;;;;4.50;1.95;;;15.10;99.90;;;;;;4955895;28;20458;-82
2022/02/11 15:01:32;;;;;;;2.17;1.50;;;15.40;99.90;;;;;;4956308;28;20024;-82
2022/02/11 15:03:58;;;;;;;3.20;1.63;;;16.20;99.90;;;;;;4956635;28;20050;-82
2022/02/11 15:06:24;;;;;;;3.90;1.60;;;16.20;99.90;;;;;;4956771;28;20023;-82
2022/02/11 15:08:50;;;;;;;5.35;1.67;;;15.80;99.90;;;;;;4956276;28;20110;-82
2022/02/11 15:11:17;;;;;;;2.08;1.50;;;15.50;99.90;;;;;;4956523;28;20066;-81
2022/02/11 15:13:43;;;;;;;3.63;1.88;;;15.70;99.90;;;;;;4955440;29;20487;-82
2022/02/11 15:16:09;;;;;;;2.28;1.73;;;16.00;99.90;;;;;;4955915;28;20035;-82
2022/02/11 15:18:34;;;;;;;2.88;1.75;;;15.80;99.90;;;;;;4956198;28;20094;-82
2022/02/11 15:21:05;;;;;;;2.47;1.80;;;15.50;99.90;;;;;;4956414;28;20130;-82
2022/02/11 15:23:37;;;;;;;2.42;1.63;;;15.60;99.90;;;;;;4941458;28;20030;-82
2022/02/11 15:26:05;;;;;;;3.72;1.70;;;15.80;99.90;;;;;;4952188;28;20118;-81
2022/02/11 15:28:39;;;;;;;2.08;1.77;;;15.90;99.90;;;;;;4955662;28;20042;-82
2022/02/11 15:31:09;;;;;;;2.58;1.50;;;15.40;99.90;;;;;;4941343;29;20483;-82
2022/02/11 15:33:36;;;;;;;3.28;1.88;;;15.20;99.90;;;;;;4956233;28;20031;-81
2022/02/11 15:36:02;;;;;;;4.43;2.20;;;15.00;99.90;;;;;;4954445;28;20078;-82
2022/02/11 15:38:27;;;;;;;2.10;1.50;;;15.70;99.90;;;;;;4956246;28;20103;-81
2022/02/11 15:40:53;;;;;;;3.40;1.70;;;15.90;99.90;;;;;;4955152;29;20567;-81
2022/02/11 15:43:18;;;;;;;2.85;1.67;;;15.90;99.90;;;;;;4955602;28;20047;-82
2022/02/11 15:45:45;;;;;;;3.88;1.67;;;16.00;99.90;;;;;;4955452;28;20411;-81
2022/02/11 15:48:11;;;;;;;2.45;1.52;;;15.50;99.90;;;;;;4955851;28;20042;-82
2022/02/11 15:50:40;;;;;;;3.53;1.92;;;15.10;99.90;;;;;;4955589;28;20432;-82
2022/02/11 15:53:09;;;;;;;4.20;1.77;;;15.00;99.90;;;;;;4954735;28;20026;-82
2022/02/11 15:55:34;;;;;;;3.03;1.75;;;15.10;99.90;;;;;;4955971;28;20042;-81
2022/02/11 15:58:00;;;;;;;3.35;1.88;;;15.00;99.90;;;;;;4955208;28;20031;-82
2022/02/11 16:00:26;;;;;;;2.70;1.80;;;15.10;99.90;;;;;;4956277;28;20452;-82
2022/02/11 16:02:51;;;;;;;2.50;1.70;;;15.20;99.90;;;;;;4955746;28;20792;-81
2022/02/11 16:05:17;;;;;;;3.13;1.48;;;15.20;99.90;;;;;;4937850;28;20027;-82
2022/02/11 16:07:43;;;;;;;2.85;1.55;;;14.40;99.90;;;;;;4954573;29;20055;-82
2022/02/11 16:10:09;;;;;;;2.72;1.52;;;13.80;99.90;;;;;;4955336;28;20675;-82
2022/02/11 16:12:35;;;;;;;3.97;1.80;;;13.60;99.90;;;;;;4955039;28;20032;-82
2022/02/11 16:15:01;;;;;;;3.72;1.73;;;13.20;99.90;;;;;;4955073;28;20054;-82
2022/02/11 16:17:28;;;;;;;3.75;2.10;;;13.30;99.90;;;;;;4955945;28;20027;-81
2022/02/11 16:19:54;;;;;;;9.25;5.15;;;13.10;99.90;;;;;;4953697;29;20496;-82
2022/02/11 16:22:20;;;;;;;9.68;4.97;;;12.70;99.90;;;;;;4955087;28;20086;-82
2022/02/11 16:24:47;;;;;;;7.22;3.30;;;12.90;99.90;;;;;;4954823;28;20038;-82
2022/02/11 16:27:15;;;;;;;5.75;2.53;;;12.90;99.90;;;;;;4954874;28;20439;-82
2022/02/11 16:29:41;;;;;;;3.67;2.55;;;12.80;99.90;;;;;;4954726;28;20039;-82
2022/02/11 16:32:08;;;;;;;4.35;2.60;;;12.70;99.90;;;;;;4954185;28;20366;-81
2022/02/11 16:34:34;;;;;;;3.15;1.80;;;12.40;99.90;;;;;;4954791;28;20033;-81
2022/02/11 16:37:00;;;;;;;4.00;1.83;;;11.90;99.90;;;;;;4954688;28;20126;-82
2022/02/11 16:39:25;;;;;;;3.13;2.08;;;11.80;99.90;;;;;;4954856;28;20107;-82
2022/02/11 16:41:51;;;;;;;4.57;1.70;;;11.40;99.90;;;;;;4954720;28;20451;-82
2022/02/11 16:44:18;;;;;;;2.60;1.60;;;11.40;99.90;;;;;;4954563;28;20027;-82
2022/02/11 16:46:45;;;;;;;2.53;2.00;;;10.70;99.90;;;;;;4953906;28;20082;-82